Terminal Aerodrome Forecast
Issued by NWS

Home | Current Version | Previous Version | Text Only | Print | Product List | Glossary On
Versions: 1 2 3 4 5 6 7 8 9 10 11 12 13 14 15 16 17 18 19 20 21 22 23 24 25 26 27 28 29 30 31 32 33 34 35 36
000
FTUS45 KCYS 280536
TAFLAR
TAF
KLAR 280536Z 2806/2906 22018G30KT P6SM SCT150
     FM281200 24020G35KT P6SM BKN100
     FM282100 28013KT 6SM -SHSN OVC050
     FM290200 29012KT 3SM -SN OVC030=

USA.gov is the U.S. government's official web portal to all federal, state and local government web resources and services.